sensor_id;sensor_type;location;lat;lon;timestamp;pressure;altitude;pressure_sealevel;temperature;humidity
43818;BME280;29868;47.360;18.984;2023-02-18T00:00:14;100674.06;;;9.52;100.00
43818;BME280;29868;47.360;18.984;2023-02-18T00:02:41;100675.50;;;9.40;100.00
43818;BME280;29868;47.360;18.984;2023-02-18T00:05:07;100668.22;;;9.25;100.00
43818;BME280;29868;47.360;18.984;2023-02-18T00:07:34;100670.59;;;9.18;100.00
43818;BME280;29868;47.360;18.984;2023-02-18T00:09:59;100664.56;;;9.19;100.00
43818;BME280;29868;47.360;18.984;2023-02-18T00:12:25;100674.75;;;9.11;100.00
43818;BME280;29868;47.360;18.984;2023-02-18T00:14:50;100668.78;;;9.14;100.00
43818;BME280;29868;47.360;18.984;2023-02-18T00:17:16;100664.78;;;9.26;100.00
43818;BME280;29868;47.360;18.984;2023-02-18T00:19:41;100668.91;;;9.20;100.00
43818;BME280;29868;47.360;18.984;2023-02-18T00:22:06;100653.69;;;9.32;100.00
43818;BME280;29868;47.360;18.984;2023-02-18T00:24:32;100653.16;;;9.47;100.00
43818;BME280;29868;47.360;18.984;2023-02-18T00:26:57;100650.81;;;9.55;100.00
43818;BME280;29868;47.360;18.984;2023-02-18T00:29:23;100655.31;;;9.63;100.00
43818;BME280;29868;47.360;18.984;2023-02-18T00:31:48;100651.16;;;9.70;100.00
43818;BME280;29868;47.360;18.984;2023-02-18T00:34:13;100653.13;;;9.80;100.00
43818;BME280;29868;47.360;18.984;2023-02-18T00:36:39;100656.63;;;10.20;100.00
43818;BME280;29868;47.360;18.984;2023-02-18T00:39:07;100654.63;;;10.47;100.00
43818;BME280;29868;47.360;18.984;2023-02-18T00:41:34;100635.81;;;10.58;100.00
43818;BME280;29868;47.360;18.984;2023-02-18T00:44:00;100631.84;;;10.77;100.00
43818;BME280;29868;47.360;18.984;2023-02-18T00:46:26;100632.50;;;11.13;100.00
43818;BME280;29868;47.360;18.984;2023-02-18T00:48:52;100638.88;;;11.29;100.00
43818;BME280;29868;47.360;18.984;2023-02-18T00:51:17;100634.84;;;11.48;100.00
43818;BME280;29868;47.360;18.984;2023-02-18T00:53:43;100629.91;;;11.65;100.00
43818;BME280;29868;47.360;18.984;2023-02-18T00:56:08;100633.66;;;11.82;100.00
43818;BME280;29868;47.360;18.984;2023-02-18T00:58:34;100620.78;;;11.91;100.00
43818;BME280;29868;47.360;18.984;2023-02-18T01:01:03;100621.72;;;11.97;100.00
43818;BME280;29868;47.360;18.984;2023-02-18T01:03:28;100619.31;;;12.12;100.00
43818;BME280;29868;47.360;18.984;2023-02-18T01:05:54;100618.59;;;12.22;100.00
43818;BME280;29868;47.360;18.984;2023-02-18T01:08:20;100614.34;;;12.29;100.00
43818;BME280;29868;47.360;18.984;2023-02-18T01:10:47;100619.56;;;12.30;100.00
43818;BME280;29868;47.360;18.984;2023-02-18T01:13:14;100620.47;;;12.32;100.00
43818;BME280;29868;47.360;18.984;2023-02-18T01:15:40;100614.44;;;12.36;100.00
43818;BME280;29868;47.360;18.984;2023-02-18T01:18:07;100612.75;;;12.40;100.00
43818;BME280;29868;47.360;18.984;2023-02-18T01:20:34;100608.38;;;12.36;100.00
43818;BME280;29868;47.360;18.984;2023-02-18T01:23:00;100609.28;;;12.39;100.00
43818;BME280;29868;47.360;18.984;2023-02-18T01:25:25;100605.72;;;12.33;100.00
43818;BME280;29868;47.360;18.984;2023-02-18T01:27:51;100608.41;;;12.39;100.00
43818;BME280;29868;47.360;18.984;2023-02-18T01:30:17;100605.84;;;12.44;100.00
43818;BME280;29868;47.360;18.984;2023-02-18T01:32:43;100605.91;;;12.50;100.00
43818;BME280;29868;47.360;18.984;2023-02-18T01:35:14;100604.16;;;12.47;100.00
43818;BME280;29868;47.360;18.984;2023-02-18T01:37:41;100598.09;;;12.50;100.00
43818;BME280;29868;47.360;18.984;2023-02-18T01:40:09;100597.38;;;12.63;100.00
43818;BME280;29868;47.360;18.984;2023-02-18T01:42:35;100584.44;;;12.72;100.00
43818;BME280;29868;47.360;18.984;2023-02-18T01:50:31;100596.75;;;12.87;100.00
43818;BME280;29868;47.360;18.984;2023-02-18T01:52:58;100591.59;;;12.91;100.00
43818;BME280;29868;47.360;18.984;2023-02-18T01:55:24;100588.13;;;12.94;100.00
43818;BME280;29868;47.360;18.984;2023-02-18T01:57:49;100587.25;;;12.90;100.00
43818;BME280;29868;47.360;18.984;2023-02-18T02:00:16;100589.81;;;12.84;100.00
43818;BME280;29868;47.360;18.984;2023-02-18T02:02:46;100576.69;;;12.78;100.00
43818;BME280;29868;47.360;18.984;2023-02-18T02:05:13;100581.88;;;12.74;100.00
43818;BME280;29868;47.360;18.984;2023-02-18T02:07:40;100583.59;;;12.76;100.00
43818;BME280;29868;47.360;18.984;2023-02-18T02:10:09;100577.50;;;12.73;100.00
43818;BME280;29868;47.360;18.984;2023-02-18T02:37:07;100541.03;;;12.76;100.00
43818;BME280;29868;47.360;18.984;2023-02-18T02:39:38;100537.59;;;12.80;100.00
43818;BME280;29868;47.360;18.984;2023-02-18T02:42:22;100543.69;;;12.80;100.00
43818;BME280;29868;47.360;18.984;2023-02-18T02:47:43;100547.03;;;12.65;100.00
43818;BME280;29868;47.360;18.984;2023-02-18T02:50:15;100549.66;;;12.67;100.00
43818;BME280;29868;47.360;18.984;2023-02-18T02:52:56;100547.88;;;12.61;100.00
43818;BME280;29868;47.360;18.984;2023-02-18T02:55:24;100560.81;;;12.57;100.00
43818;BME280;29868;47.360;18.984;2023-02-18T02:57:52;100566.13;;;12.63;100.00
43818;BME280;29868;47.360;18.984;2023-02-18T03:00:31;100557.38;;;12.59;100.00
43818;BME280;29868;47.360;18.984;2023-02-18T03:03:20;100559.91;;;12.53;100.00
43818;BME280;29868;47.360;18.984;2023-02-18T03:06:05;100568.63;;;12.55;100.00
43818;BME280;29868;47.360;18.984;2023-02-18T03:11:23;100564.22;;;12.47;100.00
43818;BME280;29868;47.360;18.984;2023-02-18T03:14:14;100572.84;;;12.46;100.00
43818;BME280;29868;47.360;18.984;2023-02-18T03:17:02;100571.94;;;12.40;100.00
43818;BME280;29868;47.360;18.984;2023-02-18T03:19:36;100577.06;;;12.33;100.00
43818;BME280;29868;47.360;18.984;2023-02-18T03:22:06;100569.94;;;12.18;100.00
43818;BME280;29868;47.360;18.984;2023-02-18T03:24:38;100580.25;;;12.09;100.00
43818;BME280;29868;47.360;18.984;2023-02-18T03:30:35;100575.78;;;11.99;100.00
43818;BME280;29868;47.360;18.984;2023-02-18T03:33:05;100577.84;;;12.27;100.00
43818;BME280;29868;47.360;18.984;2023-02-18T03:35:31;100579.56;;;12.25;100.00
43818;BME280;29868;47.360;18.984;2023-02-18T03:38:17;100594.03;;;12.03;100.00
43818;BME280;29868;47.360;18.984;2023-02-18T03:40:45;100599.09;;;11.92;100.00
43818;BME280;29868;47.360;18.984;2023-02-18T03:43:11;100587.84;;;11.93;100.00
43818;BME280;29868;47.360;18.984;2023-02-18T03:45:36;100587.44;;;12.30;100.00
43818;BME280;29868;47.360;18.984;2023-02-18T03:48:02;100588.03;;;12.83;100.00
43818;BME280;29868;47.360;18.984;2023-02-18T03:50:27;100596.19;;;13.17;100.00
43818;BME280;29868;47.360;18.984;2023-02-18T03:52:53;100597.34;;;13.50;100.00
43818;BME280;29868;47.360;18.984;2023-02-18T03:55:18;100605.28;;;13.65;100.00
43818;BME280;29868;47.360;18.984;2023-02-18T03:57:43;100615.94;;;13.96;100.00
43818;BME280;29868;47.360;18.984;2023-02-18T04:00:09;100613.34;;;13.99;100.00
43818;BME280;29868;47.360;18.984;2023-02-18T04:02:36;100621.16;;;13.96;100.00
43818;BME280;29868;47.360;18.984;2023-02-18T04:05:01;100626.44;;;14.02;100.00
43818;BME280;29868;47.360;18.984;2023-02-18T04:07:27;100622.88;;;13.94;100.00
43818;BME280;29868;47.360;18.984;2023-02-18T04:09:52;100627.16;;;13.82;100.00
43818;BME280;29868;47.360;18.984;2023-02-18T04:12:17;100631.50;;;13.80;100.00
43818;BME280;29868;47.360;18.984;2023-02-18T04:14:43;100621.00;;;13.74;100.00
43818;BME280;29868;47.360;18.984;2023-02-18T04:17:08;100626.25;;;13.76;100.00
43818;BME280;29868;47.360;18.984;2023-02-18T04:19:34;100624.47;;;13.70;100.00
43818;BME280;29868;47.360;18.984;2023-02-18T04:22:00;100634.03;;;13.70;100.00
43818;BME280;29868;47.360;18.984;2023-02-18T04:24:25;100630.50;;;13.61;100.00
43818;BME280;29868;47.360;18.984;2023-02-18T04:26:51;100621.69;;;13.47;100.00
43818;BME280;29868;47.360;18.984;2023-02-18T04:29:16;100626.84;;;13.38;100.00
43818;BME280;29868;47.360;18.984;2023-02-18T04:31:42;100625.94;;;13.34;100.00
43818;BME280;29868;47.360;18.984;2023-02-18T04:34:07;100629.44;;;13.39;100.00
43818;BME280;29868;47.360;18.984;2023-02-18T04:36:33;100626.81;;;13.33;100.00
43818;BME280;29868;47.360;18.984;2023-02-18T04:38:58;100632.06;;;13.39;100.00
43818;BME280;29868;47.360;18.984;2023-02-18T04:41:24;100620.75;;;13.39;100.00
43818;BME280;29868;47.360;18.984;2023-02-18T04:43:50;100614.63;;;13.35;100.00
43818;BME280;29868;47.360;18.984;2023-02-18T04:46:16;100624.19;;;13.36;100.00
43818;BME280;29868;47.360;18.984;2023-02-18T04:48:41;100627.66;;;13.32;100.00
43818;BME280;29868;47.360;18.984;2023-02-18T04:51:07;100623.28;;;13.31;100.00
43818;BME280;29868;47.360;18.984;2023-02-18T04:53:33;100631.16;;;13.34;100.00
43818;BME280;29868;47.360;18.984;2023-02-18T04:55:59;100628.59;;;13.44;100.00
43818;BME280;29868;47.360;18.984;2023-02-18T04:58:25;100630.31;;;13.38;100.00
43818;BME280;29868;47.360;18.984;2023-02-18T05:00:50;100627.66;;;13.32;100.00
43818;BME280;29868;47.360;18.984;2023-02-18T05:03:17;100628.50;;;13.30;100.00
43818;BME280;29868;47.360;18.984;2023-02-18T05:05:42;100632.00;;;13.30;100.00
43818;BME280;29868;47.360;18.984;2023-02-18T05:08:08;100632.81;;;13.26;100.00
43818;BME280;29868;47.360;18.984;2023-02-18T05:10:33;100638.91;;;13.28;100.00
43818;BME280;29868;47.360;18.984;2023-02-18T05:12:59;100631.94;;;13.26;100.00
43818;BME280;29868;47.360;18.984;2023-02-18T05:15:25;100648.44;;;13.23;100.00
43818;BME280;29868;47.360;18.984;2023-02-18T05:17:51;100648.38;;;13.20;100.00
43818;BME280;29868;47.360;18.984;2023-02-18T05:20:16;100644.84;;;13.15;100.00
43818;BME280;29868;47.360;18.984;2023-02-18T05:22:42;100647.47;;;13.17;100.00
43818;BME280;29868;47.360;18.984;2023-02-18T05:25:07;100650.94;;;13.17;100.00
43818;BME280;29868;47.360;18.984;2023-02-18T05:27:33;100657.03;;;13.16;100.00
43818;BME280;29868;47.360;18.984;2023-02-18T05:29:59;100661.38;;;13.17;100.00
43818;BME280;29868;47.360;18.984;2023-02-18T05:32:24;100676.16;;;13.18;100.00
43818;BME280;29868;47.360;18.984;2023-02-18T05:34:49;100671.75;;;13.09;100.00
43818;BME280;29868;47.360;18.984;2023-02-18T05:37:15;100678.63;;;13.03;100.00
43818;BME280;29868;47.360;18.984;2023-02-18T05:39:43;100682.13;;;13.05;100.00
43818;BME280;29868;47.360;18.984;2023-02-18T05:42:08;100688.13;;;12.98;100.00
43818;BME280;29868;47.360;18.984;2023-02-18T05:44:33;100684.66;;;12.96;100.00
43818;BME280;29868;47.360;18.984;2023-02-18T05:47:05;100681.06;;;12.86;100.00
43818;BME280;29868;47.360;18.984;2023-02-18T05:49:32;100695.78;;;12.82;100.00
43818;BME280;29868;47.360;18.984;2023-02-18T05:51:58;100686.31;;;12.89;100.00
43818;BME280;29868;47.360;18.984;2023-02-18T05:54:24;100695.00;;;12.89;100.00
43818;BME280;29868;47.360;18.984;2023-02-18T05:56:49;100694.94;;;12.85;100.00
43818;BME280;29868;47.360;18.984;2023-02-18T05:59:15;100717.53;;;12.84;100.00
43818;BME280;29868;47.360;18.984;2023-02-18T06:01:41;100719.16;;;12.73;100.00
43818;BME280;29868;47.360;18.984;2023-02-18T06:04:07;100721.72;;;12.70;100.00
43818;BME280;29868;47.360;18.984;2023-02-18T06:06:32;100737.25;;;12.62;100.00
43818;BME280;29868;47.360;18.984;2023-02-18T06:08:58;100747.69;;;12.64;100.00
43818;BME280;29868;47.360;18.984;2023-02-18T06:11:23;100754.56;;;12.59;100.00
43818;BME280;29868;47.360;18.984;2023-02-18T06:13:49;100751.75;;;12.44;100.00
43818;BME280;29868;47.360;18.984;2023-02-18T06:16:14;100756.00;;;12.37;100.00
43818;BME280;29868;47.360;18.984;2023-02-18T06:18:39;100742.75;;;12.22;100.00
43818;BME280;29868;47.360;18.984;2023-02-18T06:21:05;100765.13;;;12.09;100.00
43818;BME280;29868;47.360;18.984;2023-02-18T06:23:30;100756.22;;;11.95;100.00
43818;BME280;29868;47.360;18.984;2023-02-18T06:25:56;100746.31;;;11.77;100.00
43818;BME280;29868;47.360;18.984;2023-02-18T06:28:21;100740.13;;;11.70;100.00
43818;BME280;29868;47.360;18.984;2023-02-18T06:30:47;100747.06;;;11.68;100.00
43818;BME280;29868;47.360;18.984;2023-02-18T06:33:13;100747.81;;;11.62;100.00
43818;BME280;29868;47.360;18.984;2023-02-18T06:35:38;100745.25;;;11.64;100.00
43818;BME280;29868;47.360;18.984;2023-02-18T06:38:04;100758.22;;;11.62;100.00
43818;BME280;29868;47.360;18.984;2023-02-18T06:40:29;100761.69;;;11.61;100.00
43818;BME280;29868;47.360;18.984;2023-02-18T06:42:54;100769.47;;;11.60;100.00
43818;BME280;29868;47.360;18.984;2023-02-18T06:45:20;100769.47;;;11.60;100.00
43818;BME280;29868;47.360;18.984;2023-02-18T06:47:46;100765.13;;;11.60;100.00
43818;BME280;29868;47.360;18.984;2023-02-18T06:50:11;100751.44;;;11.71;100.00
43818;BME280;29868;47.360;18.984;2023-02-18T06:52:36;100757.66;;;11.80;100.00
43818;BME280;29868;47.360;18.984;2023-02-18T06:55:06;100759.53;;;11.86;100.00
43818;BME280;29868;47.360;18.984;2023-02-18T06:57:31;100763.94;;;11.90;100.00
43818;BME280;29868;47.360;18.984;2023-02-18T06:59:57;100761.19;;;11.82;100.00
43818;BME280;29868;47.360;18.984;2023-02-18T07:02:22;100760.28;;;11.82;100.00
43818;BME280;29868;47.360;18.984;2023-02-18T07:04:48;100761.22;;;11.84;100.00
43818;BME280;29868;47.360;18.984;2023-02-18T07:07:13;100771.66;;;11.85;100.00
43818;BME280;29868;47.360;18.984;2023-02-18T07:09:38;100762.97;;;11.85;100.00
43818;BME280;29868;47.360;18.984;2023-02-18T07:12:04;100773.38;;;11.85;100.00
43818;BME280;29868;47.360;18.984;2023-02-18T07:14:30;100769.16;;;11.90;100.00
43818;BME280;29868;47.360;18.984;2023-02-18T07:16:55;100773.38;;;11.83;100.00
